KMOX/MOX METAR and TAF weather

Enter ICAO airport designator
Station Type Date Time Source
KMOX METAR 2019/05/27 09:16 UTC NOAA

KMOX 270916Z AUTO 08014G19KT 10SM CLR 14/09 A2985 RMK AO2


Station Type Date Time Source
KMOX Decoded METAR 2019/05/27 09:16 UTC NOAA

Morris, Morris Municipal Airport, MN, United States (KMOX) 45-34N 095-58W
May 27, 2019 - 05:16 AM EDT / 2019.05.27 0916 UTC
Wind: from the E (080 degrees) at 16 MPH (14 KT) gusting to 22 MPH (19 KT):0
Visibility: 10 mile(s):0
Sky conditions: clear
Temperature: 57 F (14 C)
Dew Point: 48 F (9 C)
Relative Humidity: 71%
Pressure (altimeter): 29.85 in. Hg (1010 hPa)
ob: KMOX 270916Z AUTO 08014G19KT 10SM CLR 14/09 A2985 RMK AO2
cycle: 9

Station Type Date Time Source
KMOX TAF UTC NOAA

Error!

Example: see airport list